sensor_id;sensor_type;location;lat;lon;timestamp;temperature;humidity
41985;DHT22;28319;48.116;10.818;2022-09-12T00:02:54;12.90;99.90
41985;DHT22;28319;48.116;10.818;2022-09-12T00:07:58;12.80;99.90
41985;DHT22;28319;48.116;10.818;2022-09-12T00:13:01;12.70;99.90
41985;DHT22;28319;48.116;10.818;2022-09-12T00:18:03;12.70;99.90
41985;DHT22;28319;48.116;10.818;2022-09-12T00:23:06;12.60;99.90
41985;DHT22;28319;48.116;10.818;2022-09-12T00:28:08;12.40;99.90
41985;DHT22;28319;48.116;10.818;2022-09-12T00:33:11;12.50;99.90
41985;DHT22;28319;48.116;10.818;2022-09-12T00:38:15;12.50;99.90
41985;DHT22;28319;48.116;10.818;2022-09-12T00:43:35;12.50;99.90
41985;DHT22;28319;48.116;10.818;2022-09-12T00:48:41;12.40;99.90
41985;DHT22;28319;48.116;10.818;2022-09-12T00:53:47;12.40;99.90
41985;DHT22;28319;48.116;10.818;2022-09-12T00:58:55;12.30;99.90
41985;DHT22;28319;48.116;10.818;2022-09-12T01:03:57;12.10;99.90
41985;DHT22;28319;48.116;10.818;2022-09-12T01:09:02;12.10;99.90
41985;DHT22;28319;48.116;10.818;2022-09-12T01:14:05;12.00;99.90
41985;DHT22;28319;48.116;10.818;2022-09-12T01:19:24;12.10;99.90
41985;DHT22;28319;48.116;10.818;2022-09-12T01:24:51;12.10;99.90
41985;DHT22;28319;48.116;10.818;2022-09-12T01:35:33;12.00;99.90
41985;DHT22;28319;48.116;10.818;2022-09-12T01:40:44;12.00;99.90
41985;DHT22;28319;48.116;10.818;2022-09-12T01:45:55;11.90;99.90
41985;DHT22;28319;48.116;10.818;2022-09-12T01:51:06;11.80;99.90
41985;DHT22;28319;48.116;10.818;2022-09-12T01:56:14;11.70;99.90
41985;DHT22;28319;48.116;10.818;2022-09-12T02:01:23;11.70;99.90
41985;DHT22;28319;48.116;10.818;2022-09-12T02:06:31;11.60;99.90
41985;DHT22;28319;48.116;10.818;2022-09-12T02:11:37;11.60;99.90
41985;DHT22;28319;48.116;10.818;2022-09-12T02:16:45;11.50;99.90
41985;DHT22;28319;48.116;10.818;2022-09-12T02:21:53;11.40;99.90
41985;DHT22;28319;48.116;10.818;2022-09-12T02:26:58;11.40;99.90
41985;DHT22;28319;48.116;10.818;2022-09-12T02:32:04;11.40;99.90
41985;DHT22;28319;48.116;10.818;2022-09-12T02:37:15;11.40;99.90
41985;DHT22;28319;48.116;10.818;2022-09-12T02:42:20;11.30;99.90
41985;DHT22;28319;48.116;10.818;2022-09-12T02:47:26;11.30;99.90
41985;DHT22;28319;48.116;10.818;2022-09-12T02:52:31;11.10;99.90
41985;DHT22;28319;48.116;10.818;2022-09-12T02:57:33;11.10;99.90
41985;DHT22;28319;48.116;10.818;2022-09-12T03:02:47;11.00;99.90
41985;DHT22;28319;48.116;10.818;2022-09-12T03:08:16;11.00;99.90
41985;DHT22;28319;48.116;10.818;2022-09-12T03:13:25;10.80;99.90
41985;DHT22;28319;48.116;10.818;2022-09-12T03:18:41;10.70;99.90
41985;DHT22;28319;48.116;10.818;2022-09-12T03:23:58;10.60;99.90
41985;DHT22;28319;48.116;10.818;2022-09-12T03:29:02;10.60;99.90
41985;DHT22;28319;48.116;10.818;2022-09-12T03:34:05;10.50;99.90
41985;DHT22;28319;48.116;10.818;2022-09-12T03:39:17;10.50;99.90
41985;DHT22;28319;48.116;10.818;2022-09-12T03:44:22;10.60;99.90
41985;DHT22;28319;48.116;10.818;2022-09-12T03:49:24;10.30;99.90
41985;DHT22;28319;48.116;10.818;2022-09-12T03:54:27;10.30;99.90
41985;DHT22;28319;48.116;10.818;2022-09-12T03:59:30;10.40;99.90
41985;DHT22;28319;48.116;10.818;2022-09-12T04:04:33;10.40;99.90
41985;DHT22;28319;48.116;10.818;2022-09-12T04:09:39;10.40;99.90
41985;DHT22;28319;48.116;10.818;2022-09-12T04:14:41;10.40;99.90
41985;DHT22;28319;48.116;10.818;2022-09-12T04:19:43;10.40;99.90
41985;DHT22;28319;48.116;10.818;2022-09-12T04:24:49;10.40;99.90
41985;DHT22;28319;48.116;10.818;2022-09-12T04:29:51;10.40;99.90
41985;DHT22;28319;48.116;10.818;2022-09-12T04:34:55;10.30;99.90
41985;DHT22;28319;48.116;10.818;2022-09-12T04:39:58;10.20;99.90
41985;DHT22;28319;48.116;10.818;2022-09-12T04:45:00;10.30;99.90
41985;DHT22;28319;48.116;10.818;2022-09-12T04:50:03;10.20;99.90
41985;DHT22;28319;48.116;10.818;2022-09-12T04:55:08;10.10;99.90
41985;DHT22;28319;48.116;10.818;2022-09-12T05:00:11;10.10;99.90
41985;DHT22;28319;48.116;10.818;2022-09-12T05:05:14;10.10;99.90
41985;DHT22;28319;48.116;10.818;2022-09-12T05:10:18;10.10;99.90
41985;DHT22;28319;48.116;10.818;2022-09-12T05:15:21;10.10;99.90
41985;DHT22;28319;48.116;10.818;2022-09-12T05:20:24;10.10;99.90
41985;DHT22;28319;48.116;10.818;2022-09-12T05:25:28;10.20;99.90
41985;DHT22;28319;48.116;10.818;2022-09-12T05:30:30;10.20;99.90
41985;DHT22;28319;48.116;10.818;2022-09-12T05:35:32;10.00;99.90
41985;DHT22;28319;48.116;10.818;2022-09-12T05:40:35;10.10;99.90
41985;DHT22;28319;48.116;10.818;2022-09-12T05:45:37;10.00;99.90
41985;DHT22;28319;48.116;10.818;2022-09-12T05:50:41;10.10;99.90
41985;DHT22;28319;48.116;10.818;2022-09-12T05:55:44;10.00;99.90
41985;DHT22;28319;48.116;10.818;2022-09-12T06:00:46;10.00;99.90
41985;DHT22;28319;48.116;10.818;2022-09-12T06:05:49;10.00;99.90
41985;DHT22;28319;48.116;10.818;2022-09-12T06:10:57;10.10;99.90
41985;DHT22;28319;48.116;10.818;2022-09-12T06:16:04;10.10;99.90
41985;DHT22;28319;48.116;10.818;2022-09-12T06:21:10;10.20;99.90
41985;DHT22;28319;48.116;10.818;2022-09-12T06:26:15;10.30;99.90
41985;DHT22;28319;48.116;10.818;2022-09-12T06:31:20;10.30;99.90
41985;DHT22;28319;48.116;10.818;2022-09-12T06:36:24;10.40;99.90
41985;DHT22;28319;48.116;10.818;2022-09-12T06:41:28;10.50;99.90
41985;DHT22;28319;48.116;10.818;2022-09-12T06:46:31;10.60;99.90
41985;DHT22;28319;48.116;10.818;2022-09-12T06:51:33;10.60;99.90
41985;DHT22;28319;48.116;10.818;2022-09-12T06:56:39;10.80;99.90
41985;DHT22;28319;48.116;10.818;2022-09-12T07:01:41;10.80;99.90
41985;DHT22;28319;48.116;10.818;2022-09-12T07:06:45;11.00;99.90
41985;DHT22;28319;48.116;10.818;2022-09-12T07:11:49;11.10;99.90
41985;DHT22;28319;48.116;10.818;2022-09-12T07:16:51;11.30;99.90
41985;DHT22;28319;48.116;10.818;2022-09-12T07:21:53;11.40;99.90
41985;DHT22;28319;48.116;10.818;2022-09-12T07:26:56;11.50;99.90
41985;DHT22;28319;48.116;10.818;2022-09-12T07:31:59;11.60;99.90
41985;DHT22;28319;48.116;10.818;2022-09-12T07:37:02;11.60;99.90
41985;DHT22;28319;48.116;10.818;2022-09-12T07:42:06;11.80;99.90
41985;DHT22;28319;48.116;10.818;2022-09-12T07:47:09;12.00;99.90
41985;DHT22;28319;48.116;10.818;2022-09-12T07:52:14;12.10;99.90
41985;DHT22;28319;48.116;10.818;2022-09-12T07:57:17;12.30;99.90
41985;DHT22;28319;48.116;10.818;2022-09-12T08:02:19;12.40;99.90
41985;DHT22;28319;48.116;10.818;2022-09-12T08:07:23;12.50;99.90
41985;DHT22;28319;48.116;10.818;2022-09-12T08:12:28;12.80;99.90
41985;DHT22;28319;48.116;10.818;2022-09-12T08:17:31;12.90;99.90
41985;DHT22;28319;48.116;10.818;2022-09-12T08:22:33;13.10;99.90
41985;DHT22;28319;48.116;10.818;2022-09-12T08:27:37;13.40;99.90
41985;DHT22;28319;48.116;10.818;2022-09-12T08:32:40;13.50;99.90
41985;DHT22;28319;48.116;10.818;2022-09-12T08:37:42;13.80;99.90
41985;DHT22;28319;48.116;10.818;2022-09-12T08:42:53;14.00;99.90
41985;DHT22;28319;48.116;10.818;2022-09-12T08:48:02;14.20;99.90
41985;DHT22;28319;48.116;10.818;2022-09-12T08:53:11;14.40;99.90
41985;DHT22;28319;48.116;10.818;2022-09-12T08:58:16;14.60;99.90
41985;DHT22;28319;48.116;10.818;2022-09-12T09:03:40;14.90;99.90
41985;DHT22;28319;48.116;10.818;2022-09-12T09:08:50;15.20;99.90
41985;DHT22;28319;48.116;10.818;2022-09-12T09:14:06;15.50;99.90
41985;DHT22;28319;48.116;10.818;2022-09-12T09:19:35;15.80;99.90
41985;DHT22;28319;48.116;10.818;2022-09-12T09:24:41;16.10;99.90
41985;DHT22;28319;48.116;10.818;2022-09-12T09:29:49;16.40;99.90
41985;DHT22;28319;48.116;10.818;2022-09-12T09:34:53;16.80;99.90
41985;DHT22;28319;48.116;10.818;2022-09-12T09:40:02;17.10;99.90
41985;DHT22;28319;48.116;10.818;2022-09-12T09:45:15;17.50;99.90
41985;DHT22;28319;48.116;10.818;2022-09-12T09:50:18;17.80;99.20
41985;DHT22;28319;48.116;10.818;2022-09-12T09:55:24;18.10;99.90
41985;DHT22;28319;48.116;10.818;2022-09-12T10:00:31;18.30;98.90
41985;DHT22;28319;48.116;10.818;2022-09-12T10:05:43;18.50;98.70
41985;DHT22;28319;48.116;10.818;2022-09-12T10:10:52;18.80;98.20
41985;DHT22;28319;48.116;10.818;2022-09-12T10:15:58;19.10;97.80
41985;DHT22;28319;48.116;10.818;2022-09-12T10:21:01;19.40;98.30
41985;DHT22;28319;48.116;10.818;2022-09-12T10:26:08;19.80;98.90
41985;DHT22;28319;48.116;10.818;2022-09-12T10:31:15;20.00;97.20
41985;DHT22;28319;48.116;10.818;2022-09-12T10:36:18;20.10;96.60
41985;DHT22;28319;48.116;10.818;2022-09-12T10:41:20;20.50;97.20
41985;DHT22;28319;48.116;10.818;2022-09-12T10:46:27;20.80;95.10
41985;DHT22;28319;48.116;10.818;2022-09-12T10:51:30;20.90;94.90
41985;DHT22;28319;48.116;10.818;2022-09-12T10:56:34;21.30;95.10
41985;DHT22;28319;48.116;10.818;2022-09-12T11:01:43;21.30;94.20
41985;DHT22;28319;48.116;10.818;2022-09-12T11:06:52;21.80;94.20
41985;DHT22;28319;48.116;10.818;2022-09-12T11:12:05;21.70;93.30
41985;DHT22;28319;48.116;10.818;2022-09-12T11:17:19;21.70;93.30
41985;DHT22;28319;48.116;10.818;2022-09-12T11:22:34;22.00;92.70
41985;DHT22;28319;48.116;10.818;2022-09-12T11:27:47;22.20;93.10
41985;DHT22;28319;48.116;10.818;2022-09-12T11:33:04;22.30;92.10
41985;DHT22;28319;48.116;10.818;2022-09-12T11:38:40;22.60;91.90
41985;DHT22;28319;48.116;10.818;2022-09-12T11:43:47;22.50;92.80
41985;DHT22;28319;48.116;10.818;2022-09-12T11:48:57;22.70;91.60
41985;DHT22;28319;48.116;10.818;2022-09-12T11:54:08;22.70;89.90
41985;DHT22;28319;48.116;10.818;2022-09-12T11:59:19;23.00;91.70
41985;DHT22;28319;48.116;10.818;2022-09-12T12:04:32;23.10;90.60
41985;DHT22;28319;48.116;10.818;2022-09-12T12:09:42;23.60;90.20
41985;DHT22;28319;48.116;10.818;2022-09-12T12:14:47;23.70;90.90
41985;DHT22;28319;48.116;10.818;2022-09-12T12:19:59;23.90;87.50
41985;DHT22;28319;48.116;10.818;2022-09-12T12:25:06;24.00;90.50
41985;DHT22;28319;48.116;10.818;2022-09-12T12:36:04;24.50;88.40
41985;DHT22;28319;48.116;10.818;2022-09-12T12:41:42;24.70;86.50
41985;DHT22;28319;48.116;10.818;2022-09-12T12:47:11;24.50;85.50
41985;DHT22;28319;48.116;10.818;2022-09-12T12:52:18;24.80;81.30
41985;DHT22;28319;48.116;10.818;2022-09-12T12:57:27;24.30;85.30
41985;DHT22;28319;48.116;10.818;2022-09-12T13:02:32;24.20;85.90
41985;DHT22;28319;48.116;10.818;2022-09-12T13:07:39;24.60;85.70
41985;DHT22;28319;48.116;10.818;2022-09-12T13:12:44;24.90;85.20
41985;DHT22;28319;48.116;10.818;2022-09-12T13:17:48;25.00;86.20
41985;DHT22;28319;48.116;10.818;2022-09-12T13:22:52;25.00;84.00
41985;DHT22;28319;48.116;10.818;2022-09-12T13:28:03;24.90;85.20
41985;DHT22;28319;48.116;10.818;2022-09-12T13:33:12;24.50;84.00
41985;DHT22;28319;48.116;10.818;2022-09-12T13:38:27;24.30;84.30
41985;DHT22;28319;48.116;10.818;2022-09-12T13:43:38;23.80;85.50
41985;DHT22;28319;48.116;10.818;2022-09-12T13:48:42;23.70;83.50
41985;DHT22;28319;48.116;10.818;2022-09-12T13:53:46;23.90;84.70
41985;DHT22;28319;48.116;10.818;2022-09-12T13:58:53;23.90;84.40
41985;DHT22;28319;48.116;10.818;2022-09-12T14:03:56;23.60;83.90
41985;DHT22;28319;48.116;10.818;2022-09-12T14:09:31;23.70;83.20
41985;DHT22;28319;48.116;10.818;2022-09-12T14:14:35;23.60;80.60
41985;DHT22;28319;48.116;10.818;2022-09-12T14:19:41;23.60;83.10
41985;DHT22;28319;48.116;10.818;2022-09-12T14:24:46;23.80;82.60
41985;DHT22;28319;48.116;10.818;2022-09-12T14:29:51;23.50;81.70
41985;DHT22;28319;48.116;10.818;2022-09-12T14:35:16;23.60;84.80
41985;DHT22;28319;48.116;10.818;2022-09-12T14:40:22;23.70;85.80
41985;DHT22;28319;48.116;10.818;2022-09-12T14:45:27;23.70;85.90
41985;DHT22;28319;48.116;10.818;2022-09-12T14:50:34;23.40;85.70
41985;DHT22;28319;48.116;10.818;2022-09-12T14:55:45;23.00;87.10
41985;DHT22;28319;48.116;10.818;2022-09-12T15:00:55;22.80;85.50
41985;DHT22;28319;48.116;10.818;2022-09-12T15:05:59;22.50;85.30
41985;DHT22;28319;48.116;10.818;2022-09-12T15:11:05;22.40;86.80
41985;DHT22;28319;48.116;10.818;2022-09-12T15:16:09;22.50;87.30
41985;DHT22;28319;48.116;10.818;2022-09-12T15:21:12;22.40;86.90
41985;DHT22;28319;48.116;10.818;2022-09-12T15:26:20;22.20;87.60
41985;DHT22;28319;48.116;10.818;2022-09-12T15:31:24;22.10;88.00
41985;DHT22;28319;48.116;10.818;2022-09-12T15:36:27;22.00;87.90
41985;DHT22;28319;48.116;10.818;2022-09-12T15:41:32;22.00;88.10
41985;DHT22;28319;48.116;10.818;2022-09-12T15:46:36;21.90;88.40
41985;DHT22;28319;48.116;10.818;2022-09-12T15:51:39;21.90;89.40
41985;DHT22;28319;48.116;10.818;2022-09-12T15:56:43;21.80;88.90
41985;DHT22;28319;48.116;10.818;2022-09-12T16:01:45;21.80;88.30
41985;DHT22;28319;48.116;10.818;2022-09-12T16:06:49;21.90;89.00
41985;DHT22;28319;48.116;10.818;2022-09-12T16:11:52;21.80;90.00
41985;DHT22;28319;48.116;10.818;2022-09-12T16:16:54;21.70;89.00
41985;DHT22;28319;48.116;10.818;2022-09-12T16:21:56;21.60;89.30
41985;DHT22;28319;48.116;10.818;2022-09-12T16:26:59;21.50;89.80
41985;DHT22;28319;48.116;10.818;2022-09-12T16:32:02;21.40;89.60
41985;DHT22;28319;48.116;10.818;2022-09-12T16:37:04;21.40;90.60
41985;DHT22;28319;48.116;10.818;2022-09-12T16:42:07;21.30;90.40
41985;DHT22;28319;48.116;10.818;2022-09-12T16:47:09;21.40;90.80
41985;DHT22;28319;48.116;10.818;2022-09-12T16:52:12;21.40;91.00
41985;DHT22;28319;48.116;10.818;2022-09-12T16:57:17;21.20;90.70
41985;DHT22;28319;48.116;10.818;2022-09-12T17:02:19;21.10;91.30
41985;DHT22;28319;48.116;10.818;2022-09-12T17:07:22;21.00;91.90
41985;DHT22;28319;48.116;10.818;2022-09-12T17:12:25;21.00;91.30
41985;DHT22;28319;48.116;10.818;2022-09-12T17:17:27;20.90;92.30
41985;DHT22;28319;48.116;10.818;2022-09-12T17:22:29;20.90;92.40
41985;DHT22;28319;48.116;10.818;2022-09-12T17:27:33;20.80;93.10
41985;DHT22;28319;48.116;10.818;2022-09-12T17:32:35;20.80;93.60
41985;DHT22;28319;48.116;10.818;2022-09-12T17:37:37;20.70;92.90
41985;DHT22;28319;48.116;10.818;2022-09-12T17:42:40;20.80;94.10
41985;DHT22;28319;48.116;10.818;2022-09-12T17:47:42;20.80;94.50
41985;DHT22;28319;48.116;10.818;2022-09-12T17:52:45;20.80;94.90
41985;DHT22;28319;48.116;10.818;2022-09-12T17:57:48;20.70;95.10
41985;DHT22;28319;48.116;10.818;2022-09-12T18:02:50;20.50;95.40
41985;DHT22;28319;48.116;10.818;2022-09-12T18:07:53;20.40;95.50
41985;DHT22;28319;48.116;10.818;2022-09-12T18:12:56;20.40;95.50
41985;DHT22;28319;48.116;10.818;2022-09-12T18:17:59;20.30;95.70
41985;DHT22;28319;48.116;10.818;2022-09-12T18:23:01;20.00;95.90
41985;DHT22;28319;48.116;10.818;2022-09-12T18:28:05;19.80;96.30
41985;DHT22;28319;48.116;10.818;2022-09-12T18:33:07;19.60;96.70
41985;DHT22;28319;48.116;10.818;2022-09-12T18:38:09;19.60;96.70
41985;DHT22;28319;48.116;10.818;2022-09-12T18:43:12;19.40;96.80
41985;DHT22;28319;48.116;10.818;2022-09-12T18:48:14;19.30;96.80
41985;DHT22;28319;48.116;10.818;2022-09-12T18:53:17;19.10;97.00
41985;DHT22;28319;48.116;10.818;2022-09-12T18:58:20;18.70;97.40
41985;DHT22;28319;48.116;10.818;2022-09-12T19:03:22;18.90;97.30
41985;DHT22;28319;48.116;10.818;2022-09-12T19:08:24;18.90;97.20
41985;DHT22;28319;48.116;10.818;2022-09-12T19:13:28;18.90;97.30
41985;DHT22;28319;48.116;10.818;2022-09-12T19:18:30;18.70;97.30
41985;DHT22;28319;48.116;10.818;2022-09-12T19:23:34;18.70;97.30
41985;DHT22;28319;48.116;10.818;2022-09-12T19:28:38;18.60;97.50
41985;DHT22;28319;48.116;10.818;2022-09-12T19:33:40;18.50;97.50
41985;DHT22;28319;48.116;10.818;2022-09-12T19:38:44;18.30;97.80
41985;DHT22;28319;48.116;10.818;2022-09-12T19:43:47;18.10;97.70
41985;DHT22;28319;48.116;10.818;2022-09-12T19:48:50;17.70;97.90
41985;DHT22;28319;48.116;10.818;2022-09-12T19:53:52;17.50;98.20
41985;DHT22;28319;48.116;10.818;2022-09-12T19:58:56;17.50;98.30
41985;DHT22;28319;48.116;10.818;2022-09-12T20:03:58;17.50;98.40
41985;DHT22;28319;48.116;10.818;2022-09-12T20:09:00;17.40;98.40
41985;DHT22;28319;48.116;10.818;2022-09-12T20:14:03;17.40;98.20
41985;DHT22;28319;48.116;10.818;2022-09-12T20:19:06;17.30;98.40
41985;DHT22;28319;48.116;10.818;2022-09-12T20:24:10;17.10;98.50
41985;DHT22;28319;48.116;10.818;2022-09-12T20:29:14;17.00;98.80
41985;DHT22;28319;48.116;10.818;2022-09-12T20:34:18;16.90;98.70
41985;DHT22;28319;48.116;10.818;2022-09-12T20:39:21;16.80;98.80
41985;DHT22;28319;48.116;10.818;2022-09-12T20:44:25;16.60;98.80
41985;DHT22;28319;48.116;10.818;2022-09-12T20:49:29;16.50;99.10
41985;DHT22;28319;48.116;10.818;2022-09-12T20:54:31;16.40;99.00
41985;DHT22;28319;48.116;10.818;2022-09-12T20:59:35;16.20;99.20
41985;DHT22;28319;48.116;10.818;2022-09-12T21:04:40;16.20;99.20
41985;DHT22;28319;48.116;10.818;2022-09-12T21:09:42;16.00;99.20
41985;DHT22;28319;48.116;10.818;2022-09-12T21:14:45;16.10;99.30
41985;DHT22;28319;48.116;10.818;2022-09-12T21:19:47;16.00;99.30
41985;DHT22;28319;48.116;10.818;2022-09-12T21:24:49;15.70;99.90
41985;DHT22;28319;48.116;10.818;2022-09-12T21:29:53;15.50;99.90
41985;DHT22;28319;48.116;10.818;2022-09-12T21:34:55;15.50;99.90
41985;DHT22;28319;48.116;10.818;2022-09-12T21:39:57;15.50;99.90
41985;DHT22;28319;48.116;10.818;2022-09-12T21:45:01;15.30;99.90
41985;DHT22;28319;48.116;10.818;2022-09-12T21:50:03;15.30;99.90
41985;DHT22;28319;48.116;10.818;2022-09-12T21:55:07;15.20;99.90
41985;DHT22;28319;48.116;10.818;2022-09-12T22:00:13;15.30;99.90
41985;DHT22;28319;48.116;10.818;2022-09-12T22:05:16;15.30;99.90
41985;DHT22;28319;48.116;10.818;2022-09-12T22:10:19;15.30;99.90
41985;DHT22;28319;48.116;10.818;2022-09-12T22:15:24;15.20;99.90
41985;DHT22;28319;48.116;10.818;2022-09-12T22:20:26;15.20;99.90
41985;DHT22;28319;48.116;10.818;2022-09-12T22:25:28;15.10;99.90
41985;DHT22;28319;48.116;10.818;2022-09-12T22:30:31;14.90;99.90
41985;DHT22;28319;48.116;10.818;2022-09-12T22:35:34;14.80;99.90
41985;DHT22;28319;48.116;10.818;2022-09-12T22:40:35;14.80;99.90
41985;DHT22;28319;48.116;10.818;2022-09-12T22:45:40;14.60;99.90
41985;DHT22;28319;48.116;10.818;2022-09-12T22:50:43;14.60;99.90
41985;DHT22;28319;48.116;10.818;2022-09-12T22:55:45;14.20;99.90
41985;DHT22;28319;48.116;10.818;2022-09-12T23:00:49;14.20;99.90
41985;DHT22;28319;48.116;10.818;2022-09-12T23:05:51;14.20;99.90
41985;DHT22;28319;48.116;10.818;2022-09-12T23:10:59;14.30;99.90
41985;DHT22;28319;48.116;10.818;2022-09-12T23:16:05;14.30;99.90
41985;DHT22;28319;48.116;10.818;2022-09-12T23:21:09;14.10;99.90
41985;DHT22;28319;48.116;10.818;2022-09-12T23:26:13;14.00;99.90
41985;DHT22;28319;48.116;10.818;2022-09-12T23:31:16;14.00;99.90
41985;DHT22;28319;48.116;10.818;2022-09-12T23:36:18;14.00;99.90
41985;DHT22;28319;48.116;10.818;2022-09-12T23:41:21;14.10;99.90
41985;DHT22;28319;48.116;10.818;2022-09-12T23:46:24;14.00;99.90
41985;DHT22;28319;48.116;10.818;2022-09-12T23:51:26;13.80;99.90
41985;DHT22;28319;48.116;10.818;2022-09-12T23:56:29;13.70;99.90
